createdAt,value
2022-08-19T00:01:00.084Z,2.90
2022-08-19T00:06:02.984Z,3.10
2022-08-19T00:11:05.993Z,2.70
2022-08-19T00:16:10.437Z,2.30
2022-08-19T00:21:13.331Z,2.85
2022-08-19T00:31:20.347Z,2.58
2022-08-19T00:36:23.121Z,4.05
2022-08-19T00:41:26.343Z,4.05
2022-08-19T00:46:30.876Z,4.82
2022-08-19T00:51:34.029Z,4.40
2022-08-19T00:56:36.981Z,5.47
2022-08-19T01:01:42.115Z,4.80
2022-08-19T01:06:44.973Z,4.65
2022-08-19T01:11:48.148Z,4.53
2022-08-19T01:16:55.467Z,5.03
2022-08-19T01:22:01.809Z,5.93
2022-08-19T01:27:18.784Z,6.95
2022-08-19T01:32:33.198Z,4.78
2022-08-19T01:37:43.991Z,6.78
2022-08-19T01:42:48.712Z,6.03
2022-08-19T01:48:01.032Z,6.25
2022-08-19T01:53:07.761Z,6.78
2022-08-19T01:58:14.361Z,7.22
2022-08-19T02:03:17.100Z,5.10
2022-08-19T02:08:20.252Z,4.18
2022-08-19T02:13:26.461Z,2.88
2022-08-19T02:18:29.412Z,4.93
2022-08-19T02:23:33.282Z,4.03
2022-08-19T02:28:37.411Z,4.45
2022-08-19T02:33:40.475Z,4.07
2022-08-19T02:38:43.172Z,3.65
2022-08-19T02:44:26.252Z,4.47
2022-08-19T02:49:17.337Z,4.72
2022-08-19T02:54:20.504Z,3.88
2022-08-19T02:59:25.652Z,4.88
2022-08-19T03:04:28.515Z,5.15
2022-08-19T03:09:31.642Z,4.75
2022-08-19T03:14:36.484Z,4.35
2022-08-19T03:19:39.360Z,4.70
2022-08-19T03:24:43.001Z,4.85
2022-08-19T03:29:47.033Z,4.25
2022-08-19T03:34:53.198Z,4.53
2022-08-19T03:39:56.027Z,4.38
2022-08-19T03:45:00.805Z,4.50
2022-08-19T03:50:03.742Z,4.70
2022-08-19T03:55:07.159Z,3.95
2022-08-19T04:00:12.846Z,4.68
2022-08-19T04:05:16.799Z,5.28
2022-08-19T04:10:19.616Z,5.70
2022-08-19T04:15:23.767Z,4.68
2022-08-19T04:20:26.490Z,5.72
2022-08-19T04:25:29.268Z,5.00
2022-08-19T04:30:33.348Z,5.55
2022-08-19T04:35:40.201Z,5.40
2022-08-19T04:41:01.038Z,4.57
2022-08-19T04:46:09.010Z,3.78
2022-08-19T04:51:14.188Z,6.30
2022-08-19T04:56:22.645Z,6.03
2022-08-19T05:01:29.509Z,5.85
2022-08-19T05:06:34.761Z,4.65
2022-08-19T05:11:42.848Z,6.22
2022-08-19T05:16:47.367Z,6.40
2022-08-19T05:22:07.611Z,5.65
2022-08-19T05:27:10.340Z,6.18
2022-08-19T05:32:14.472Z,6.72
2022-08-19T05:37:17.934Z,5.63
2022-08-19T05:42:21.523Z,6.45
2022-08-19T05:47:25.732Z,6.57
2022-08-19T05:52:29.303Z,7.10
2022-08-19T05:57:33.227Z,6.47
2022-08-19T06:02:37.562Z,6.90
2022-08-19T06:07:40.919Z,8.23
2022-08-19T06:12:43.896Z,8.63
2022-08-19T06:17:47.987Z,6.05
2022-08-19T06:22:52.607Z,6.93
2022-08-19T06:28:13.891Z,8.13
2022-08-19T06:33:19.244Z,8.63
2022-08-19T06:38:24.473Z,8.38
2022-08-19T06:43:28.181Z,8.57
2022-08-19T06:48:36.599Z,8.13
2022-08-19T06:53:41.823Z,7.25
2022-08-19T06:58:44.895Z,9.40
2022-08-19T07:03:49.432Z,6.72
2022-08-19T07:08:53.160Z,10.05
2022-08-19T07:13:59.037Z,9.73
2022-08-19T07:19:15.491Z,10.05
2022-08-19T07:24:19.470Z,9.63
2022-08-19T07:29:24.094Z,11.55
2022-08-19T07:34:30.805Z,10.48
2022-08-19T07:39:35.451Z,11.55
2022-08-19T07:49:48.072Z,12.77
2022-08-19T07:54:51.297Z,25.67
2022-08-19T07:59:54.012Z,13.63
2022-08-19T08:05:18.081Z,13.25
2022-08-19T08:10:21.597Z,14.25
2022-08-19T08:15:27.177Z,14.18
2022-08-19T08:20:33.430Z,14.70
2022-08-19T08:25:37.456Z,14.63
2022-08-19T08:30:45.305Z,16.33
2022-08-19T08:35:49.512Z,15.10
2022-08-19T08:40:55.702Z,14.23
2022-08-19T08:46:03.352Z,14.75
2022-08-19T08:51:09.771Z,15.80
2022-08-19T08:56:17.105Z,15.55
2022-08-19T09:01:21.751Z,17.02
2022-08-19T09:06:30.197Z,15.75
2022-08-19T09:11:42.624Z,15.07
2022-08-19T09:16:47.018Z,16.50
2022-08-19T09:21:51.524Z,16.45
2022-08-19T09:26:54.415Z,18.17
2022-08-19T09:31:57.144Z,15.32
2022-08-19T09:37:01.244Z,15.52
2022-08-19T09:42:04.490Z,10.73
2022-08-19T09:52:13.714Z,12.88
2022-08-19T09:57:19.137Z,7.57
2022-08-19T10:02:22.034Z,13.18
2022-08-19T10:12:33.953Z,8.25
2022-08-19T10:17:37.161Z,11.05
2022-08-19T10:22:39.854Z,8.80
2022-08-19T10:27:46.559Z,11.52
2022-08-19T10:32:54.007Z,11.02
2022-08-19T10:38:00.219Z,10.93
2022-08-19T10:43:06.324Z,9.13
2022-08-19T10:48:09.029Z,10.18
2022-08-19T10:53:18.211Z,8.48
2022-08-19T10:58:26.128Z,5.30
2022-08-19T11:03:30.819Z,7.50
2022-08-19T11:08:34.410Z,9.23
2022-08-19T11:13:39.503Z,9.10
2022-08-19T11:18:45.215Z,9.23
2022-08-19T11:23:49.228Z,8.55
2022-08-19T11:28:55.190Z,7.13
2022-08-19T11:33:58.576Z,6.22
2022-08-19T11:39:01.728Z,4.40
2022-08-19T11:44:06.137Z,2.70
2022-08-19T11:49:13.833Z,2.75
2022-08-19T11:54:17.412Z,2.20
2022-08-19T11:59:21.492Z,2.67
2022-08-19T12:04:24.795Z,2.05
2022-08-19T12:09:28.032Z,1.80
2022-08-19T12:14:35.562Z,1.70
2022-08-19T12:19:38.528Z,1.38
2022-08-19T12:24:41.228Z,1.13
2022-08-19T12:29:45.325Z,1.40
2022-08-19T12:34:48.694Z,1.55
2022-08-19T12:39:51.504Z,1.65
2022-08-19T12:44:55.928Z,1.30
2022-08-19T12:49:59.241Z,1.20
2022-08-19T12:55:02.002Z,1.40
2022-08-19T13:00:11.640Z,1.90
2022-08-19T13:05:16.897Z,1.30
2022-08-19T13:10:21.867Z,1.30
2022-08-19T13:15:25.963Z,1.48
2022-08-19T13:20:29.524Z,1.50
2022-08-19T13:25:32.238Z,1.40
2022-08-19T13:30:54.522Z,1.08
2022-08-19T13:36:01.804Z,1.27
2022-08-19T13:41:11.073Z,1.40
2022-08-19T13:46:17.438Z,1.70
2022-08-19T13:51:20.171Z,1.90
2022-08-19T13:56:26.017Z,1.90
2022-08-19T14:01:31.570Z,2.17
2022-08-19T14:06:35.225Z,2.47
2022-08-19T14:11:38.470Z,2.05
2022-08-19T14:16:42.585Z,2.45
2022-08-19T14:21:45.826Z,1.92
2022-08-19T14:26:49.798Z,2.28
2022-08-19T14:31:54.229Z,2.53
2022-08-19T14:36:57.025Z,2.80
2022-08-19T14:42:00.169Z,2.88
2022-08-19T14:47:05.121Z,2.60
2022-08-19T14:52:08.068Z,2.83
2022-08-19T14:57:13.445Z,2.38
2022-08-19T15:02:33.859Z,2.80
2022-08-19T15:07:39.609Z,2.70
2022-08-19T15:12:43.800Z,2.90
2022-08-19T15:17:48.527Z,2.50
2022-08-19T15:22:52.052Z,3.00
2022-08-19T15:27:55.099Z,3.92
2022-08-19T15:33:00.068Z,4.45
2022-08-19T15:38:02.876Z,5.05
2022-08-19T15:43:05.592Z,4.35
2022-08-19T15:48:09.764Z,3.67
2022-08-19T15:53:13.116Z,4.60
2022-08-19T15:58:33.929Z,4.47
2022-08-19T16:03:55.504Z,4.60
2022-08-19T16:08:58.997Z,4.38
2022-08-19T16:14:02.416Z,3.95
2022-08-19T16:19:11.875Z,4.68
2022-08-19T16:24:16.191Z,4.00
2022-08-19T16:29:33.181Z,3.90
2022-08-19T16:34:40.074Z,4.70
2022-08-19T16:39:43.733Z,4.22
2022-08-19T16:44:47.448Z,4.32
2022-08-19T16:49:53.526Z,3.50
2022-08-19T16:54:57.658Z,4.60
2022-08-19T17:05:04.630Z,3.13
2022-08-19T17:10:10.236Z,3.40
2022-08-19T17:15:13.729Z,3.97
2022-08-19T17:20:18.302Z,3.83
2022-08-19T17:25:21.063Z,3.45
2022-08-19T17:30:24.675Z,3.33
2022-08-19T17:35:29.206Z,2.97
2022-08-19T17:40:32.698Z,3.53
2022-08-19T17:45:36.624Z,3.78
2022-08-19T17:50:41.691Z,2.95
2022-08-19T17:55:44.411Z,3.38
2022-08-19T18:00:53.724Z,2.90
2022-08-19T18:05:58.554Z,2.72
2022-08-19T18:11:01.758Z,3.53
2022-08-19T18:21:08.973Z,3.03
2022-08-19T18:26:11.676Z,2.72
2022-08-19T18:31:15.104Z,2.40
2022-08-19T18:41:54.218Z,2.65
2022-08-19T18:47:14.171Z,3.00
2022-08-19T18:52:17.107Z,2.75
2022-08-19T18:57:24.899Z,3.53
2022-08-19T19:02:29.381Z,3.25
2022-08-19T19:07:32.295Z,4.60
2022-08-19T19:12:37.597Z,3.72
2022-08-19T19:17:42.013Z,5.47
2022-08-19T19:22:45.150Z,5.10
2022-08-19T19:27:50.329Z,4.68
2022-08-19T19:32:54.550Z,5.43
2022-08-19T19:37:59.693Z,5.45
2022-08-19T19:48:09.393Z,5.97
2022-08-19T19:53:13.270Z,3.20
2022-08-19T19:58:20.900Z,6.57
2022-08-19T20:03:32.928Z,4.65
2022-08-19T20:09:08.294Z,8.85
2022-08-19T20:14:13.082Z,6.32
2022-08-19T20:19:18.029Z,4.95
2022-08-19T20:24:22.505Z,6.07
2022-08-19T20:29:40.051Z,4.90
2022-08-19T20:34:49.073Z,5.10
2022-08-19T20:39:51.902Z,5.13
2022-08-19T20:44:54.558Z,4.45
2022-08-19T20:49:59.005Z,4.13
2022-08-19T20:55:02.088Z,3.72
2022-08-19T21:00:07.317Z,4.00
2022-08-19T21:05:11.884Z,4.70
2022-08-19T21:10:15.352Z,5.75
2022-08-19T21:15:18.234Z,9.40
2022-08-19T21:20:22.328Z,3.92
2022-08-19T21:25:25.038Z,5.75
2022-08-19T21:30:28.317Z,3.92
2022-08-19T21:35:32.833Z,4.60
2022-08-19T21:40:36.069Z,5.28
2022-08-19T21:45:38.668Z,5.38
2022-08-19T21:50:43.103Z,5.83
2022-08-19T21:55:53.500Z,4.65
2022-08-19T22:00:56.561Z,6.78
2022-08-19T22:06:00.618Z,6.43
2022-08-19T22:11:03.614Z,5.93
2022-08-19T22:21:12.186Z,7.07
2022-08-19T22:26:16.165Z,6.97
2022-08-19T22:31:19.451Z,6.20
2022-08-19T22:36:23.945Z,6.05
2022-08-19T22:41:27.564Z,6.00
2022-08-19T22:46:33.672Z,8.00
2022-08-19T22:51:55.542Z,7.95
2022-08-19T22:56:58.689Z,7.65
2022-08-19T23:02:01.775Z,3.50
2022-08-19T23:07:07.631Z,7.30
2022-08-19T23:12:12.306Z,7.60
2022-08-19T23:17:15.003Z,4.60
2022-08-19T23:22:25.567Z,5.03
2022-08-19T23:27:45.831Z,7.00
2022-08-19T23:32:48.619Z,7.40
2022-08-19T23:37:53.074Z,7.28
2022-08-19T23:42:56.056Z,6.68
2022-08-19T23:47:59.025Z,7.53
2022-08-19T23:53:03.384Z,7.22
2022-08-19T23:58:07.594Z,5.18
